Time;durP1;ratioP1;P1;durP2;ratioP2;P2;SDS_P1;SDS_P2;PMS_P1;PMS_P2;Temp;Humidity;BMP_temperature;BMP_pressure;BME280_temperature;BME280_humidity;BME280_pressure;Samples;Min_cycle;Max_cycle;Signal;HPM_P1;HPM_P2
2023/10/10 00:01:17;;;;;;;21.83;12.77;;;18.60;99.90;;;;;;5052038;28;20028;-77
2023/10/10 00:03:45;;;;;;;21.13;13.70;;;18.50;99.90;;;;;;5036220;28;20053;-77
2023/10/10 00:06:13;;;;;;;25.73;14.82;;;18.50;99.90;;;;;;5035696;28;20458;-77
2023/10/10 00:08:43;;;;;;;20.85;13.38;;;18.50;99.90;;;;;;5035931;28;20030;-78
2023/10/10 00:11:19;;;;;;;21.23;13.25;;;18.50;99.90;;;;;;5036003;28;20025;-78
2023/10/10 00:13:46;;;;;;;17.23;12.70;;;18.50;99.90;;;;;;5035655;28;20039;-78
2023/10/10 00:16:26;;;;;;;19.95;13.27;;;18.50;99.90;;;;;;5035644;28;20105;-77
2023/10/10 00:18:55;;;;;;;21.83;12.95;;;18.50;99.90;;;;;;5051207;28;20032;-77
2023/10/10 00:21:24;;;;;;;20.10;13.50;;;18.50;99.90;;;;;;5035815;28;20044;-77
2023/10/10 00:23:51;;;;;;;20.08;12.98;;;18.50;99.90;;;;;;5035420;28;20029;-77
2023/10/10 00:26:20;;;;;;;22.02;14.18;;;18.50;99.90;;;;;;5034255;28;20029;-77
2023/10/10 00:28:53;;;;;;;19.35;13.85;;;18.50;99.90;;;;;;5035608;28;20037;-78
2023/10/10 00:31:20;;;;;;;19.60;14.20;;;18.50;99.90;;;;;;5050934;28;20021;-78
2023/10/10 00:33:49;;;;;;;21.08;14.63;;;18.50;99.90;;;;;;5035267;28;20033;-77
2023/10/10 00:36:21;;;;;;;18.80;12.20;;;18.40;99.90;;;;;;5051332;28;20094;-77
2023/10/10 00:38:49;;;;;;;22.05;13.35;;;18.50;99.90;;;;;;5050209;28;20192;-77
2023/10/10 00:41:15;;;;;;;18.60;13.10;;;18.50;99.90;;;;;;5035088;28;20033;-77
2023/10/10 00:43:41;;;;;;;23.55;14.15;;;18.50;99.90;;;;;;5035345;28;20049;-77
2023/10/10 00:46:11;;;;;;;19.98;14.05;;;18.50;99.90;;;;;;5050897;28;20112;-77
2023/10/10 00:48:38;;;;;;;20.10;13.13;;;18.50;99.90;;;;;;5034674;28;20037;-77
2023/10/10 00:51:10;;;;;;;20.00;13.50;;;18.50;99.90;;;;;;5035144;28;20117;-77
2023/10/10 00:53:42;;;;;;;15.23;10.90;;;18.50;99.90;;;;;;5034561;28;20034;-77
2023/10/10 00:56:08;;;;;;;21.58;15.85;;;18.50;99.90;;;;;;5050194;28;20037;-77
2023/10/10 00:58:38;;;;;;;23.92;15.13;;;18.50;99.90;;;;;;5033467;28;20033;-77
2023/10/10 01:01:19;;;;;;;20.80;14.70;;;18.50;99.90;;;;;;5034637;28;20038;-76
2023/10/10 01:03:50;;;;;;;20.98;14.20;;;18.50;99.90;;;;;;5050538;28;20056;-75
2023/10/10 01:06:25;;;;;;;21.40;14.13;;;18.40;99.90;;;;;;5034650;28;20462;-76
2023/10/10 01:08:58;;;;;;;21.73;13.27;;;18.50;99.90;;;;;;5033495;28;20025;-76
2023/10/10 01:11:24;;;;;;;20.55;14.85;;;18.50;99.90;;;;;;5050569;28;20374;-77
2023/10/10 01:13:56;;;;;;;21.75;13.60;;;18.50;99.90;;;;;;5033279;28;20038;-77
2023/10/10 01:16:25;;;;;;;;;;;18.50;99.90;;;;;;5050770;28;20043;-77
2023/10/10 01:18:59;;;;;;;20.27;13.80;;;18.50;99.90;;;;;;5034435;28;19905;-78
2023/10/10 01:21:43;;;;;;;20.55;14.88;;;18.50;99.90;;;;;;5034722;28;20034;-77
2023/10/10 01:24:12;;;;;;;16.60;13.68;;;18.50;99.90;;;;;;5032965;28;20061;-78
2023/10/10 01:26:44;;;;;;;19.30;14.18;;;18.40;99.90;;;;;;5034577;28;20033;-78
2023/10/10 01:29:21;;;;;;;20.30;15.43;;;18.40;99.90;;;;;;5032699;28;20040;-78
2023/10/10 01:31:48;;;;;;;18.05;12.52;;;18.40;99.90;;;;;;5033388;28;20524;-77
2023/10/10 01:34:30;;;;;;;19.30;13.82;;;18.40;99.90;;;;;;5049532;28;20076;-77
2023/10/10 01:37:00;;;;;;;17.85;13.15;;;18.40;99.90;;;;;;5033932;28;20113;-77
2023/10/10 01:39:49;;;;;;;19.75;15.25;;;18.50;99.90;;;;;;5034098;28;20092;-78
2023/10/10 01:42:17;;;;;;;22.92;16.50;;;18.40;99.90;;;;;;5032386;28;20451;-77
2023/10/10 01:44:43;;;;;;;18.38;14.40;;;18.30;99.90;;;;;;5034044;28;20608;-77
2023/10/10 01:47:26;;;;;;;20.48;14.80;;;18.30;99.90;;;;;;5032563;28;20509;-78
2023/10/10 01:49:53;;;;;;;17.42;13.80;;;18.20;99.90;;;;;;5032961;28;20408;-78
2023/10/10 01:52:21;;;;;;;15.27;11.90;;;18.30;99.90;;;;;;5034111;28;20068;-77
2023/10/10 01:54:52;;;;;;;16.15;13.43;;;18.30;99.90;;;;;;5032444;28;20463;-78
2023/10/10 01:57:22;;;;;;;19.73;15.33;;;18.30;99.90;;;;;;5034185;28;20519;-78
2023/10/10 01:59:59;;;;;;;20.20;14.75;;;18.30;99.90;;;;;;5033766;28;20351;-77
2023/10/10 02:02:27;;;;;;;16.58;12.50;;;18.30;99.90;;;;;;5034430;28;20029;-78
2023/10/10 02:04:59;;;;;;;21.40;14.20;;;18.30;99.90;;;;;;5033341;28;20030;-77
2023/10/10 02:07:31;;;;;;;21.83;14.93;;;18.30;99.90;;;;;;5033808;28;20060;-78
2023/10/10 02:10:18;;;;;;;17.20;13.68;;;18.40;99.90;;;;;;5032904;28;20033;-78
2023/10/10 02:12:44;;;;;;;13.88;10.25;;;18.30;99.90;;;;;;5032946;28;20037;-78
2023/10/10 02:15:18;;;;;;;15.00;11.98;;;18.40;99.90;;;;;;5033603;28;20034;-79
2023/10/10 02:17:54;;;;;;;21.30;15.43;;;18.40;99.90;;;;;;5033709;28;20488;-79
2023/10/10 02:22:54;;;;;;;16.58;13.93;;;18.40;99.90;;;;;;5033589;28;20029;-79
2023/10/10 02:27:55;;;;;;;20.48;15.10;;;18.30;99.90;;;;;;5033645;28;20054;-78
2023/10/10 02:30:35;;;;;;;20.48;14.75;;;18.30;99.90;;;;;;5032355;28;20038;-78
2023/10/10 02:33:31;;;;;;;17.52;12.43;;;18.30;99.90;;;;;;5033487;28;20029;-79
2023/10/10 02:35:57;;;;;;;15.57;12.68;;;18.20;99.90;;;;;;5048806;28;20033;-78
2023/10/10 02:38:39;;;;;;;20.55;15.07;;;18.20;99.90;;;;;;5037539;28;20099;-79
2023/10/10 02:44:04;;;;;;;17.30;12.43;;;18.20;99.90;;;;;;5037418;28;20022;-78
2023/10/10 02:46:36;;;;;;;17.50;13.88;;;18.30;99.90;;;;;;5037388;28;20028;-78
2023/10/10 02:49:29;;;;;;;20.03;14.40;;;18.20;99.90;;;;;;5053263;28;20022;-78
2023/10/10 02:51:55;;;;;;;19.35;12.73;;;18.30;99.90;;;;;;5036568;28;20050;-79
2023/10/10 02:56:59;;;;;;;21.13;16.85;;;18.30;99.90;;;;;;5037116;28;20513;-79
2023/10/10 02:59:31;;;;;;;27.17;19.08;;;18.30;99.90;;;;;;5053311;28;20037;-78
2023/10/10 03:02:09;;;;;;;23.98;18.75;;;18.20;99.90;;;;;;5052184;28;20037;-78
2023/10/10 03:04:53;;;;;;;28.58;20.08;;;18.30;99.90;;;;;;5052963;28;20374;-78
2023/10/10 03:07:31;;;;;;;31.05;21.35;;;18.20;99.90;;;;;;5035702;28;20386;-78
2023/10/10 03:12:50;;;;;;;30.40;20.20;;;18.20;99.90;;;;;;5036545;28;20039;-78
2023/10/10 03:18:18;;;;;;;35.13;20.95;;;18.10;99.90;;;;;;5036705;28;20036;-78
2023/10/10 03:39:17;;;;;;;37.50;17.05;;;18.10;99.90;;;;;;5036524;28;20394;-78
2023/10/10 05:25:52;;;;;;;42.05;29.17;;;17.70;99.90;;;;;;5033580;28;20080;-78
2023/10/10 05:28:19;;;;;;;48.63;29.90;;;17.70;99.90;;;;;;5034283;28;20040;-77
2023/10/10 05:30:46;;;;;;;51.45;30.17;;;17.70;99.90;;;;;;5034224;28;20026;-79
2023/10/10 05:33:12;;;;;;;41.10;29.33;;;17.70;99.90;;;;;;5034341;28;20029;-78
2023/10/10 05:35:43;;;;;;;44.42;29.75;;;17.70;99.90;;;;;;5034181;28;20034;-78
2023/10/10 05:38:09;;;;;;;58.60;29.48;;;17.70;99.90;;;;;;5034329;28;20073;-78
2023/10/10 05:40:38;;;;;;;41.92;28.88;;;17.70;99.90;;;;;;5050075;28;20402;-78
2023/10/10 05:43:09;;;;;;;67.60;29.30;;;17.70;99.90;;;;;;5034099;28;20033;-78
2023/10/10 05:45:36;;;;;;;73.35;30.75;;;17.70;99.90;;;;;;5050090;28;20371;-77
2023/10/10 05:48:01;;;;;;;40.58;26.92;;;17.70;99.90;;;;;;5032257;28;20045;-77
2023/10/10 05:50:27;;;;;;;44.95;29.60;;;17.70;99.90;;;;;;5033869;28;20025;-78
2023/10/10 05:52:53;;;;;;;47.40;29.65;;;17.70;99.90;;;;;;5033706;28;20458;-78
2023/10/10 05:55:20;;;;;;;55.95;30.60;;;17.70;99.90;;;;;;5032673;28;20112;-77
2023/10/10 05:57:46;;;;;;;53.78;30.42;;;17.70;99.90;;;;;;5033809;28;20032;-77
2023/10/10 06:00:13;;;;;;;46.00;29.83;;;17.70;99.90;;;;;;5049069;28;20025;-78
2023/10/10 06:02:44;;;;;;;52.60;33.15;;;17.70;99.90;;;;;;5049508;28;20034;-78
2023/10/10 06:05:09;;;;;;;53.85;32.15;;;17.70;99.90;;;;;;5032562;28;20036;-77
2023/10/10 06:07:42;;;;;;;51.45;33.05;;;17.70;99.90;;;;;;5033873;28;20041;-77
2023/10/10 06:10:18;;;;;;;55.83;33.35;;;17.70;99.90;;;;;;5033958;28;20037;-78
2023/10/10 06:12:48;;;;;;;54.72;32.63;;;17.70;99.90;;;;;;5033815;28;20041;-78
2023/10/10 06:15:18;;;;;;;51.50;32.28;;;17.70;99.90;;;;;;5033555;28;20025;-78
2023/10/10 06:17:57;;;;;;;55.83;35.63;;;17.70;99.90;;;;;;5032277;28;20037;-78
2023/10/10 06:20:23;;;;;;;54.22;34.42;;;17.70;99.90;;;;;;5033744;28;20044;-78
2023/10/10 06:22:49;;;;;;;58.30;34.95;;;17.70;99.90;;;;;;5033336;28;20048;-78
2023/10/10 06:25:18;;;;;;;62.15;37.53;;;17.70;99.90;;;;;;5033684;28;20454;-78
2023/10/10 06:27:54;;;;;;;56.17;34.20;;;17.70;99.90;;;;;;5033131;28;20048;-79
2023/10/10 06:30:24;;;;;;;57.40;35.75;;;17.60;99.90;;;;;;5033760;28;20029;-78
2023/10/10 06:32:51;;;;;;;49.97;34.17;;;17.60;99.90;;;;;;5031988;28;20045;-78
2023/10/10 06:37:52;;;;;;;61.25;38.85;;;17.70;99.90;;;;;;5033009;28;20390;-78
2023/10/10 06:40:25;;;;;;;59.20;36.27;;;17.70;99.90;;;;;;5032447;28;20034;-78
2023/10/10 06:42:55;;;;;;;54.72;33.03;;;17.70;99.90;;;;;;5033352;28;20276;-78
2023/10/10 06:45:26;;;;;;;56.22;35.50;;;17.70;99.90;;;;;;5033516;28;20026;-78
2023/10/10 06:47:54;;;;;;;54.10;35.05;;;17.70;99.90;;;;;;5033307;28;20022;-78
2023/10/10 06:50:23;;;;;;;53.47;34.55;;;17.70;99.90;;;;;;5048479;28;20485;-78
2023/10/10 06:52:52;;;;;;;52.78;34.42;;;17.70;99.90;;;;;;5032006;28;20136;-78
2023/10/10 06:55:22;;;;;;;48.25;31.45;;;17.70;99.90;;;;;;5033251;28;20055;-78
2023/10/10 06:57:57;;;;;;;50.15;32.72;;;17.80;99.90;;;;;;5033701;28;20128;-78
2023/10/10 07:00:44;;;;;;;42.80;28.83;;;17.80;99.90;;;;;;5032642;28;20435;-78
2023/10/10 07:03:18;;;;;;;58.63;35.03;;;17.80;99.90;;;;;;5033447;28;20064;-78
2023/10/10 07:05:45;;;;;;;56.08;35.55;;;17.90;99.90;;;;;;5032090;28;20022;-78
2023/10/10 07:08:19;;;;;;;54.10;36.63;;;17.90;99.90;;;;;;5032268;28;20040;-78
2023/10/10 07:10:45;;;;;;;46.67;31.15;;;17.90;99.90;;;;;;5032013;28;20021;-78
2023/10/10 07:13:18;;;;;;;48.85;32.90;;;17.90;99.90;;;;;;5033289;28;20091;-78
2023/10/10 07:15:51;;;;;;;47.30;34.40;;;17.80;99.90;;;;;;5033050;28;20029;-78
2023/10/10 07:18:22;;;;;;;49.13;34.33;;;17.90;99.90;;;;;;5031410;28;20033;-77
2023/10/10 07:21:04;;;;;;;50.42;32.97;;;17.80;99.90;;;;;;5033224;28;20033;-77
2023/10/10 07:24:02;;;;;;;45.60;32.25;;;17.90;99.90;;;;;;5050677;28;20037;-78
2023/10/10 07:26:30;;;;;;;45.60;31.95;;;17.90;99.90;;;;;;5036392;28;20501;-78
2023/10/10 07:28:56;;;;;;;43.30;29.20;;;17.80;99.90;;;;;;5036134;28;20078;-77
2023/10/10 07:31:23;;;;;;;46.97;31.13;;;17.80;99.90;;;;;;5035118;28;20033;-77
2023/10/10 07:34:03;;;;;;;40.25;28.10;;;17.80;99.90;;;;;;5036638;28;20056;-78
2023/10/10 07:36:29;;;;;;;42.10;28.70;;;17.80;99.90;;;;;;5036638;28;20037;-78
2023/10/10 07:41:45;;;;;;;46.95;30.20;;;17.70;99.90;;;;;;5034951;28;20069;-78
2023/10/10 07:44:12;;;;;;;43.33;28.75;;;17.70;99.90;;;;;;5035772;28;20033;-78
2023/10/10 07:46:37;;;;;;;37.83;26.98;;;17.70;99.90;;;;;;5034770;28;20124;-78
2023/10/10 07:49:03;;;;;;;38.17;27.30;;;17.70;99.90;;;;;;5035963;28;20496;-78
2023/10/10 07:51:29;;;;;;;38.83;28.38;;;17.70;99.90;;;;;;5034880;28;20099;-78
2023/10/10 07:54:12;;;;;;;41.97;27.73;;;17.80;99.90;;;;;;5035789;28;20042;-78
2023/10/10 07:56:47;;;;;;;41.47;28.20;;;17.80;99.90;;;;;;5035120;28;20025;-78
2023/10/10 07:59:19;;;;;;;37.08;26.40;;;17.80;99.90;;;;;;5035685;28;20590;-78
2023/10/10 08:01:47;;;;;;;37.47;24.10;;;17.80;99.90;;;;;;5036335;28;20029;-79
2023/10/10 08:04:14;;;;;;;32.78;24.77;;;17.80;99.90;;;;;;5035682;28;20391;-79
2023/10/10 08:06:44;;;;;;;35.13;24.85;;;17.90;99.90;;;;;;5035651;28;20026;-78
2023/10/10 08:11:43;;;;;;;30.20;21.95;;;17.80;99.90;;;;;;5035448;28;20493;-79
2023/10/10 08:14:09;;;;;;;30.45;22.15;;;17.80;99.90;;;;;;5035450;28;20049;-79
2023/10/10 08:16:37;;;;;;;28.98;21.85;;;17.90;99.90;;;;;;5050756;28;20025;-79
2023/10/10 08:19:08;;;;;;;33.83;21.70;;;17.90;99.90;;;;;;5034264;28;20042;-78
2023/10/10 08:21:48;;;;;;;33.80;21.83;;;17.90;99.90;;;;;;5035986;28;20036;-79
2023/10/10 08:24:15;;;;;;;25.00;19.90;;;17.90;99.90;;;;;;5035394;28;20530;-78
2023/10/10 08:26:41;;;;;;;26.80;20.05;;;17.90;99.90;;;;;;5036212;28;20458;-78
2023/10/10 08:29:14;;;;;;;29.27;19.50;;;18.00;99.90;;;;;;5035405;28;20030;-78
2023/10/10 08:31:42;;;;;;;;;;;18.00;99.90;;;;;;5035522;28;20489;-78
2023/10/10 08:34:08;;;;;;;29.73;19.80;;;18.10;99.90;;;;;;5032812;28;19909;-78
2023/10/10 08:36:34;;;;;;;26.27;18.17;;;18.10;99.90;;;;;;5034899;28;20030;-78
2023/10/10 08:41:43;;;;;;;27.77;18.60;;;18.10;99.90;;;;;;5035182;28;20037;-78
2023/10/10 08:44:10;;;;;;;26.35;18.65;;;18.10;99.90;;;;;;5035255;28;20044;-79
2023/10/10 08:46:48;;;;;;;29.98;18.25;;;18.20;99.90;;;;;;5034845;28;20049;-79
2023/10/10 08:49:15;;;;;;;23.75;18.15;;;18.20;99.90;;;;;;5035476;28;20030;-81
2023/10/10 08:51:45;;;;;;;26.17;17.63;;;18.20;99.90;;;;;;5049974;28;20033;-80
2023/10/10 08:54:12;;;;;;;23.88;16.63;;;18.20;99.90;;;;;;5035355;28;20079;-79
2023/10/10 08:57:10;;;;;;;25.38;17.20;;;18.30;99.90;;;;;;5034825;28;20030;-79
2023/10/10 08:59:37;;;;;;;27.30;16.40;;;18.30;99.90;;;;;;5050587;28;20051;-80
2023/10/10 09:02:12;;;;;;;23.88;16.33;;;18.30;99.90;;;;;;5034525;28;20039;-78
2023/10/10 09:04:38;;;;;;;24.88;15.43;;;18.40;99.90;;;;;;5050129;28;20113;-78
2023/10/10 09:07:08;;;;;;;24.00;16.23;;;18.30;99.90;;;;;;5035232;28;20025;-78
2023/10/10 09:09:40;;;;;;;26.35;15.90;;;18.40;99.90;;;;;;5035093;28;20025;-78
2023/10/10 09:12:14;;;;;;;24.33;15.68;;;18.40;99.90;;;;;;5035088;28;20056;-78
2023/10/10 09:14:42;;;;;;;21.17;15.02;;;18.40;99.90;;;;;;5034054;28;20060;-78
2023/10/10 09:17:08;;;;;;;22.63;15.15;;;18.50;99.90;;;;;;5049766;28;20161;-78
2023/10/10 09:19:48;;;;;;;22.35;14.35;;;18.50;99.90;;;;;;5034430;28;20042;-78
2023/10/10 09:22:28;;;;;;;21.45;14.95;;;18.60;99.90;;;;;;5034742;28;20032;-79
2023/10/10 09:24:59;;;;;;;19.17;14.40;;;18.60;99.90;;;;;;5033496;28;20111;-78
2023/10/10 09:27:28;;;;;;;21.33;14.95;;;18.70;99.90;;;;;;5049091;28;20046;-76
2023/10/10 09:29:56;;;;;;;20.05;14.32;;;18.70;99.60;;;;;;5034272;28;20030;-79
2023/10/10 09:32:42;;;;;;;22.00;14.48;;;18.70;99.50;;;;;;5033878;28;20481;-78
2023/10/10 09:35:08;;;;;;;21.98;14.63;;;18.70;99.60;;;;;;5049890;28;20065;-78
2023/10/10 09:37:38;;;;;;;17.85;13.32;;;18.80;99.60;;;;;;5033997;28;20037;-80
2023/10/10 09:40:15;;;;;;;19.90;13.77;;;18.90;99.60;;;;;;5033753;28;20021;-79
2023/10/10 09:42:53;;;;;;;22.40;13.93;;;19.00;99.20;;;;;;5034103;28;20120;-79
2023/10/10 09:48:17;;;;;;;18.60;13.30;;;19.20;99.00;;;;;;5033945;28;20125;-78
2023/10/10 09:51:08;;;;;;;19.85;13.25;;;19.30;98.70;;;;;;5032744;28;20549;-79
2023/10/10 09:53:33;;;;;;;21.45;14.43;;;19.30;98.50;;;;;;5033423;28;20462;-79
2023/10/10 09:56:03;;;;;;;18.88;13.50;;;19.50;98.60;;;;;;5033798;28;20113;-78
2023/10/10 09:58:29;;;;;;;18.45;13.15;;;19.50;98.40;;;;;;5033506;28;20030;-79
2023/10/10 10:01:03;;;;;;;22.27;12.90;;;19.60;98.10;;;;;;5033724;28;20037;-78
2023/10/10 10:09:18;;;;;;;18.38;12.60;;;19.70;98.20;;;;;;5033571;28;20534;-79
2023/10/10 10:12:13;;;;;;;19.85;14.27;;;19.80;98.00;;;;;;5049433;28;20416;-79
2023/10/10 10:14:47;;;;;;;24.55;14.00;;;19.90;97.70;;;;;;5032758;28;20041;-78
2023/10/10 10:17:44;;;;;;;20.35;14.35;;;20.00;97.50;;;;;;5033585;28;20080;-78
2023/10/10 10:20:20;;;;;;;18.17;13.00;;;20.10;97.40;;;;;;5049466;28;20363;-79
2023/10/10 10:22:53;;;;;;;22.73;13.85;;;20.20;97.30;;;;;;5034003;28;20071;-78
2023/10/10 10:25:31;;;;;;;19.42;14.13;;;20.30;97.40;;;;;;5034073;28;20030;-79
2023/10/10 10:28:35;;;;;;;17.02;12.90;;;20.40;97.10;;;;;;5033900;28;20041;-79
2023/10/10 10:30:53;;;;;;;19.17;12.98;;;20.40;97.00;;;;;;5033306;28;20382;-79
2023/10/10 10:33:21;;;;;;;20.52;12.70;;;20.60;96.80;;;;;;5032160;28;20120;-79
2023/10/10 10:35:48;;;;;;;22.17;14.68;;;20.70;96.40;;;;;;5033243;28;20470;-79
2023/10/10 10:38:13;;;;;;;18.05;14.13;;;20.80;96.10;;;;;;5033268;28;20038;-79
2023/10/10 10:40:42;;;;;;;23.23;14.00;;;20.80;96.20;;;;;;5032876;28;20371;-79
2023/10/10 10:43:14;;;;;;;21.92;14.48;;;20.90;96.00;;;;;;5031828;28;20041;-78
2023/10/10 10:45:44;;;;;;;17.13;12.95;;;20.90;95.80;;;;;;5032984;28;20029;-79
2023/10/10 10:48:30;;;;;;;19.45;13.63;;;21.00;96.10;;;;;;5031969;28;20110;-78
2023/10/10 10:51:41;;;;;;;23.83;14.82;;;21.10;96.10;;;;;;5048968;28;20095;-78
2023/10/10 10:54:08;;;;;;;21.13;14.32;;;21.20;95.80;;;;;;5033544;28;20041;-78
2023/10/10 10:59:13;;;;;;;21.17;13.35;;;21.40;95.60;;;;;;5036196;28;20477;-77
2023/10/10 11:01:54;;;;;;;19.98;13.43;;;21.50;95.50;;;;;;5035648;28;20029;-78
2023/10/10 11:07:01;;;;;;;16.90;10.60;;;21.70;95.00;;;;;;5037264;28;20072;-78
2023/10/10 11:09:28;;;;;;;19.25;14.32;;;21.80;95.10;;;;;;5037144;28;20124;-77
2023/10/10 11:12:02;;;;;;;19.17;12.63;;;21.80;94.50;;;;;;5037017;28;20025;-78
2023/10/10 11:14:29;;;;;;;18.05;12.80;;;21.90;94.40;;;;;;5052810;28;20037;-78
2023/10/10 11:16:58;;;;;;;20.17;13.32;;;21.90;94.70;;;;;;5052078;28;20037;-78
2023/10/10 11:21:57;;;;;;;19.87;12.80;;;22.00;94.30;;;;;;5036744;28;20033;-78
2023/10/10 11:24:25;;;;;;;16.33;11.13;;;22.10;94.30;;;;;;5052017;28;20039;-78
2023/10/10 11:29:45;;;;;;;20.42;12.45;;;22.30;94.20;;;;;;5036558;28;20374;-78
2023/10/10 11:32:23;;;;;;;17.88;11.80;;;22.40;93.70;;;;;;5036974;28;20446;-78
2023/10/10 11:34:56;;;;;;;19.02;12.48;;;22.30;93.00;;;;;;5035451;28;20033;-79
2023/10/10 11:37:26;;;;;;;17.30;11.23;;;22.40;93.20;;;;;;5035804;28;20049;-78
2023/10/10 11:42:49;;;;;;;17.75;10.93;;;22.50;93.20;;;;;;5036333;28;20055;-78
2023/10/10 11:45:19;;;;;;;16.50;11.15;;;22.60;93.40;;;;;;5036486;28;20026;-78
2023/10/10 11:47:46;;;;;;;16.08;10.88;;;22.80;93.30;;;;;;5036124;28;20029;-78
2023/10/10 11:50:15;;;;;;;20.52;14.02;;;22.90;93.00;;;;;;5036153;28;20025;-78
2023/10/10 11:53:01;;;;;;;19.17;11.40;;;23.00;92.70;;;;;;5036023;28;20028;-79
2023/10/10 11:55:28;;;;;;;19.73;11.95;;;22.90;92.50;;;;;;5036639;28;20377;-79
2023/10/10 11:57:58;;;;;;;17.80;11.73;;;23.00;92.50;;;;;;5036028;28;20097;-78
2023/10/10 12:06:04;;;;;;;16.33;9.23;;;23.10;92.50;;;;;;5035945;28;20036;-78
2023/10/10 12:08:29;;;;;;;15.15;11.00;;;23.30;92.40;;;;;;5035850;28;20026;-79
2023/10/10 12:11:12;;;;;;;15.25;9.73;;;23.40;92.10;;;;;;5035974;28;20108;-79
2023/10/10 12:13:38;;;;;;;12.85;8.77;;;23.50;92.00;;;;;;5035724;28;20033;-78
2023/10/10 12:16:10;;;;;;;14.23;10.65;;;23.60;92.10;;;;;;5035825;28;20445;-78
2023/10/10 12:18:43;;;;;;;19.50;11.13;;;23.70;92.00;;;;;;5036085;28;20044;-78
2023/10/10 12:21:10;;;;;;;14.82;10.27;;;23.80;91.30;;;;;;5036059;28;20489;-78
2023/10/10 12:23:36;;;;;;;19.23;11.25;;;23.80;90.90;;;;;;5035581;28;20049;-79
2023/10/10 12:26:04;;;;;;;15.15;9.98;;;23.70;90.60;;;;;;5035469;28;20021;-78
2023/10/10 12:28:30;;;;;;;15.30;9.43;;;23.50;90.50;;;;;;5035473;28;20116;-78
2023/10/10 12:30:56;;;;;;;16.85;9.45;;;23.50;90.40;;;;;;5034221;28;20053;-78
2023/10/10 12:33:23;;;;;;;15.23;9.10;;;23.40;90.70;;;;;;5035518;28;20025;-78
2023/10/10 12:35:49;;;;;;;14.77;9.63;;;23.40;91.00;;;;;;5034174;28;20033;-78
2023/10/10 12:38:20;;;;;;;18.10;9.85;;;23.50;91.30;;;;;;5035124;28;20136;-78
2023/10/10 12:40:48;;;;;;;16.75;9.95;;;23.50;91.00;;;;;;5034513;28;20021;-79
2023/10/10 12:43:13;;;;;;;15.65;10.43;;;23.60;91.20;;;;;;5034261;28;20036;-78
2023/10/10 12:45:39;;;;;;;18.65;10.57;;;23.70;90.90;;;;;;5033666;28;20025;-79
2023/10/10 12:48:13;;;;;;;15.35;9.27;;;23.80;90.80;;;;;;5035458;28;20068;-78
2023/10/10 12:50:44;;;;;;;16.08;9.23;;;23.90;90.80;;;;;;5035771;28;20026;-79
2023/10/10 12:53:15;;;;;;;17.25;10.13;;;24.10;90.70;;;;;;5034891;28;20037;-79
2023/10/10 12:55:48;;;;;;;15.32;9.93;;;24.20;90.20;;;;;;5050776;28;20037;-78
2023/10/10 12:58:20;;;;;;;17.30;9.43;;;24.20;90.00;;;;;;5034706;28;20071;-78
2023/10/10 13:00:50;;;;;;;14.20;9.82;;;24.30;90.20;;;;;;5034802;28;20037;-78
2023/10/10 13:03:27;;;;;;;16.90;10.23;;;24.40;90.30;;;;;;5035080;28;20037;-78
2023/10/10 13:05:58;;;;;;;17.10;9.85;;;24.40;89.80;;;;;;5050942;28;20351;-78
2023/10/10 13:08:25;;;;;;;15.88;8.93;;;24.50;89.40;;;;;;5034509;28;20033;-78
2023/10/10 13:10:54;;;;;;;15.68;9.20;;;24.60;89.10;;;;;;5033476;28;20363;-78
2023/10/10 13:13:31;;;;;;;15.55;9.50;;;24.60;87.90;;;;;;5034468;28;20120;-79
2023/10/10 13:16:07;;;;;;;13.57;8.88;;;24.60;87.80;;;;;;5034798;28;20033;-79
2023/10/10 13:18:35;;;;;;;13.15;8.38;;;24.60;88.20;;;;;;5033400;28;20034;-79
2023/10/10 13:21:02;;;;;;;11.02;7.57;;;24.70;88.50;;;;;;5032898;28;20032;-79
2023/10/10 13:23:27;;;;;;;13.57;7.82;;;24.80;88.30;;;;;;5033493;28;20034;-78
2023/10/10 13:25:59;;;;;;;16.50;8.70;;;24.80;88.10;;;;;;5032905;28;20036;-78
2023/10/10 13:28:25;;;;;;;13.93;8.73;;;24.90;87.40;;;;;;5016345;28;20037;-79
2023/10/10 13:30:50;;;;;;;14.48;8.23;;;24.90;86.50;;;;;;5033112;28;20033;-79
2023/10/10 13:33:17;;;;;;;18.13;9.20;;;24.90;86.40;;;;;;5033800;28;20113;-79
2023/10/10 13:35:44;;;;;;;17.40;9.38;;;24.80;85.40;;;;;;5034125;28;20038;-78
2023/10/10 13:38:11;;;;;;;12.00;7.72;;;24.60;84.80;;;;;;5033928;28;20052;-78
2023/10/10 13:40:48;;;;;;;12.57;7.88;;;24.50;85.60;;;;;;5033545;28;20525;-78
2023/10/10 13:43:17;;;;;;;15.15;7.50;;;24.50;86.40;;;;;;5033325;28;20065;-79
2023/10/10 13:45:48;;;;;;;12.55;8.23;;;24.40;86.30;;;;;;5033837;28;20041;-79
2023/10/10 13:48:15;;;;;;;10.23;7.18;;;24.40;85.90;;;;;;5034300;28;20029;-79
2023/10/10 13:50:41;;;;;;;12.18;7.32;;;24.40;86.00;;;;;;5033892;28;20086;-79
2023/10/10 13:53:12;;;;;;;12.65;7.07;;;24.40;86.30;;;;;;5033519;28;20065;-79
2023/10/10 13:55:46;;;;;;;14.90;7.50;;;24.30;85.90;;;;;;5017063;28;20083;-78
2023/10/10 13:58:13;;;;;;;12.75;7.03;;;24.30;85.90;;;;;;5032658;28;20040;-79
2023/10/10 14:00:42;;;;;;;15.65;7.40;;;24.30;86.00;;;;;;5033389;28;20478;-79
2023/10/10 14:03:08;;;;;;;12.32;6.68;;;24.40;85.70;;;;;;5034791;28;20379;-79
2023/10/10 14:05:38;;;;;;;14.00;7.38;;;24.60;86.20;;;;;;5032245;28;20032;-79
2023/10/10 14:08:17;;;;;;;11.68;6.57;;;24.60;85.70;;;;;;5033688;28;20025;-79
2023/10/10 14:10:43;;;;;;;13.95;7.00;;;24.60;85.10;;;;;;5033913;28;20029;-79
2023/10/10 14:13:21;;;;;;;12.25;6.07;;;24.60;85.00;;;;;;5033996;28;20386;-79
2023/10/10 14:15:57;;;;;;;14.27;7.15;;;24.50;85.00;;;;;;5032596;28;20374;-79
2023/10/10 14:19:09;;;;;;;12.95;6.38;;;24.40;84.90;;;;;;5033195;28;20453;-78
2023/10/10 14:21:28;;;;;;;14.10;7.72;;;24.30;85.50;;;;;;5032264;28;20043;-79
2023/10/10 14:24:08;;;;;;;14.13;6.70;;;24.10;84.60;;;;;;5034131;28;20038;-79
2023/10/10 14:26:37;;;;;;;11.95;5.95;;;23.90;85.40;;;;;;5034113;28;20025;-79
2023/10/10 14:29:06;;;;;;;12.70;6.85;;;23.80;86.40;;;;;;5033486;28;20030;-79
2023/10/10 14:31:42;;;;;;;13.85;6.70;;;23.70;86.80;;;;;;5034464;28;20029;-79
2023/10/10 14:34:11;;;;;;;12.18;6.57;;;23.60;87.00;;;;;;5037775;28;20029;-79
2023/10/10 14:36:39;;;;;;;12.60;6.63;;;23.50;87.10;;;;;;5037828;28;20037;-79
2023/10/10 14:39:08;;;;;;;13.60;6.82;;;23.50;87.30;;;;;;5037841;28;20045;-78
2023/10/10 14:41:34;;;;;;;9.25;5.78;;;23.40;87.60;;;;;;5035822;28;20512;-78
2023/10/10 14:44:00;;;;;;;7.57;5.30;;;23.40;88.00;;;;;;5037283;28;20484;-78
2023/10/10 14:46:31;;;;;;;9.98;5.25;;;23.40;88.50;;;;;;5036876;28;20541;-79
2023/10/10 14:49:05;;;;;;;14.05;5.45;;;23.40;88.80;;;;;;5037360;28;20060;-79
2023/10/10 14:51:34;;;;;;;11.98;6.45;;;23.40;88.80;;;;;;5037279;28;20421;-79
2023/10/10 14:54:11;;;;;;;10.73;5.50;;;23.50;88.60;;;;;;5036986;28;20061;-79
2023/10/10 14:56:45;;;;;;;10.90;6.07;;;23.50;88.70;;;;;;5037753;28;20102;-79
2023/10/10 14:59:17;;;;;;;13.02;5.88;;;23.40;89.00;;;;;;5035644;28;20029;-78
2023/10/10 15:01:47;;;;;;;9.70;5.18;;;23.50;89.60;;;;;;5035504;28;20040;-79
2023/10/10 15:04:17;;;;;;;14.82;5.55;;;23.50;90.00;;;;;;5036242;28;20446;-79
2023/10/10 15:06:43;;;;;;;10.00;5.45;;;23.50;90.00;;;;;;5035763;28;20121;-78
2023/10/10 15:09:19;;;;;;;8.57;5.15;;;23.50;89.60;;;;;;5036538;28;20029;-78
2023/10/10 15:11:46;;;;;;;9.68;5.55;;;23.50;89.80;;;;;;5036918;28;20030;-79
2023/10/10 15:14:13;;;;;;;11.27;5.10;;;23.50;89.80;;;;;;5035464;28;20120;-79
2023/10/10 15:16:40;;;;;;;12.55;4.90;;;23.40;89.40;;;;;;5036771;28;20029;-79
2023/10/10 15:19:07;;;;;;;9.18;5.00;;;23.40;88.70;;;;;;5036703;28;20052;-79
2023/10/10 15:21:37;;;;;;;8.93;5.13;;;23.30;87.60;;;;;;5036898;28;20034;-79
2023/10/10 15:24:04;;;;;;;12.45;4.65;;;23.30;86.90;;;;;;5035958;28;20041;-79
2023/10/10 15:26:32;;;;;;;9.63;4.53;;;23.30;85.70;;;;;;5036586;28;20052;-78
2023/10/10 15:28:59;;;;;;;11.43;5.28;;;23.30;85.60;;;;;;5037109;28;20092;-78
2023/10/10 15:31:27;;;;;;;9.20;4.80;;;23.30;85.90;;;;;;5035298;28;20037;-79
2023/10/10 15:33:54;;;;;;;8.52;4.38;;;23.30;86.10;;;;;;5035082;28;20034;-78
2023/10/10 15:36:20;;;;;;;8.32;4.43;;;23.30;86.00;;;;;;5036473;28;20116;-79
2023/10/10 15:38:46;;;;;;;6.25;3.75;;;23.30;86.20;;;;;;5035052;28;20081;-78
2023/10/10 15:41:17;;;;;;;8.05;4.97;;;23.30;86.00;;;;;;5036077;28;20544;-78
2023/10/10 15:43:47;;;;;;;9.63;4.88;;;23.20;86.00;;;;;;5035971;28;20030;-78
2023/10/10 15:46:16;;;;;;;8.02;3.95;;;23.20;85.70;;;;;;5036788;28;20060;-78
2023/10/10 15:48:49;;;;;;;6.35;3.70;;;23.10;85.90;;;;;;5035517;28;20124;-78